This is the latest recevied weather packets stored in our database for station/object DO1BDB-12. If no packets are shown the sender has not sent any weather packets the latest 10 day(s).
| Time | Temp. | Humidity | Pressure | Rain* | Wind** | Luminosity | Snow |
|---|---|---|---|---|---|---|---|
| 1787914150 | 27.22° C | 42% | 100.7 hPa | - | - | - | - |
| 1787914085 | 28.89° C | 41% | 100.7 hPa | - | - | - | - |
| 1787914019 | 28.33° C | 43% | 100.7 hPa | - | - | - | - |
| 1787913953 | 28.33° C | 42% | 100.7 hPa | - | - | - | - |
| 1787913887 | 29.44° C | 41% | 100.7 hPa | - | - | - | - |
| 1787913821 | 28.33° C | 41% | 100.7 hPa | - | - | - | - |
| 1787913755 | 27.78° C | 43% | 100.7 hPa | - | - | - | - |
| 1787913689 | 27.78° C | 43% | 100.7 hPa | - | - | - | - |
| 1787913626 | 27.78° C | 41% | 100.7 hPa | - | - | - | - |
| 1787913558 | 28.33° C | 41% | 100.7 hPa | - | - | - | - |
| 1787913492 | 28.33° C | 41% | 100.7 hPa | - | - | - | - |
| 1787913426 | 27.78° C | 42% | 100.7 hPa | - | - | - | - |
| 1787913360 | 27.78° C | 42% | 100.7 hPa | - | - | - | - |
| 1787913294 | 28.33° C | 41% | 100.7 hPa | - | - | - | - |
| 1787913229 | 27.22° C | 42% | 100.7 hPa | - | - | - | - |
| 1787913163 | 27.78° C | 43% | 100.7 hPa | - | - | - | - |
| 1787913097 | 26.67° C | 44% | 100.7 hPa | - | - | - | - |
| 1787913031 | 26.67° C | 44% | 100.7 hPa | - | - | - | - |
| 1787912966 | 27.22° C | 43% | 100.7 hPa | - | - | - | - |
| 1787912899 | 27.22° C | 43% | 100.7 hPa | - | - | - | - |
| 1787912833 | 27.22° C | 43% | 100.7 hPa | - | - | - | - |
| 1787912768 | 26.67° C | 44% | 100.8 hPa | - | - | - | - |
| 1787912702 | 26.67° C | 44% | 100.7 hPa | - | - | - | - |
| 1787912636 | 26.67° C | 44% | 100.7 hPa | - | - | - | - |
| 1787912570 | 28.33° C | 40% | 100.7 hPa | - | - | - | - |
* Rain since midnight (hover to see other rain measurements)
** Current wind speed in m/s (hover to see current wind gust speed)